Time;durP1;ratioP1;P1;durP2;ratioP2;P2;SDS_P1;SDS_P2;PMS_P1;PMS_P2;Temp;Humidity;BMP_temperature;BMP_pressure;BME280_temperature;BME280_humidity;BME280_pressure;Samples;Min_cycle;Max_cycle;Signal;HPM_P1;HPM_P2
2023/10/26 00:02:20;;;;;;;5.00;1.90;;;;;;;19.78;54.99;99216.29;109905;1287;22007;-79
2023/10/26 00:04:46;;;;;;;5.00;1.70;;;;;;;19.83;55.00;99217.03;109910;1285;21939;-59
2023/10/26 00:07:11;;;;;;;5.40;1.60;;;;;;;19.87;54.92;99209.98;109912;1280;21944;-79
2023/10/26 00:09:37;;;;;;;4.20;1.50;;;;;;;19.91;54.83;99205.27;109911;1287;21970;-78
2023/10/26 00:12:03;;;;;;;4.30;1.90;;;;;;;19.93;54.73;99207.24;109913;1281;22375;-76
2023/10/26 00:14:29;;;;;;;4.60;1.70;;;;;;;19.94;54.58;99209.02;109895;1285;22002;-59
2023/10/26 00:16:55;;;;;;;5.30;1.60;;;;;;;19.94;54.52;99205.41;109912;1282;22466;-78
2023/10/26 00:19:20;;;;;;;6.60;1.70;;;;;;;19.94;54.45;99206.50;109916;1287;21978;-78
2023/10/26 00:21:46;;;;;;;4.70;1.70;;;;;;;19.93;54.36;99208.17;109904;1280;21961;-59
2023/10/26 00:24:12;;;;;;;4.70;1.70;;;;;;;19.91;54.29;99199.58;109941;1286;21973;-60
2023/10/26 00:26:40;;;;;;;7.80;1.90;;;;;;;19.89;54.34;99189.38;109951;1286;21851;-59
2023/10/26 00:29:05;;;;;;;4.40;1.60;;;;;;;19.87;54.31;99182.91;108427;1286;1002181;-79
2023/10/26 00:31:31;;;;;;;3.70;2.00;;;;;;;19.84;54.32;99177.23;109950;1283;21998;-58
2023/10/26 00:33:56;;;;;;;5.30;1.60;;;;;;;19.81;54.32;99175.88;109956;1276;21925;-70
2023/10/26 00:36:22;;;;;;;3.90;1.50;;;;;;;19.75;54.13;99177.86;109876;1276;22199;-59
2023/10/26 00:38:48;;;;;;;4.10;1.60;;;;;;;19.68;54.02;99181.58;109971;1286;21925;-78
2023/10/26 00:41:13;;;;;;;3.20;1.30;;;;;;;19.62;54.11;99189.27;109925;1286;22017;-78
2023/10/26 00:43:39;;;;;;;4.40;1.80;;;;;;;19.57;54.20;99195.11;109964;1273;21911;-79
2023/10/26 00:46:10;;;;;;;5.60;1.50;;;;;;;19.54;54.22;99197.30;109958;1273;22011;-79
2023/10/26 00:48:36;;;;;;;5.20;1.60;;;;;;;19.51;54.27;99204.77;109865;1286;21919;-80
2023/10/26 00:51:01;;;;;;;2.90;1.10;;;;;;;19.48;54.28;99209.59;109962;1283;21952;-75
2023/10/26 00:53:27;;;;;;;4.30;1.40;;;;;;;19.46;54.38;99203.48;109959;1277;21862;-60
2023/10/26 00:55:52;;;;;;;6.30;1.70;;;;;;;19.45;54.38;99203.70;109952;1286;21941;-59
2023/10/26 00:58:18;;;;;;;4.20;1.20;;;;;;;19.46;54.55;99209.56;109911;1286;21868;-59
2023/10/26 01:00:44;;;;;;;4.90;1.20;;;;;;;19.48;54.65;99212.09;109855;1281;21946;-78
2023/10/26 01:03:10;;;;;;;7.20;1.90;;;;;;;19.51;54.67;99203.55;109961;1283;21945;-78
2023/10/26 01:05:35;;;;;;;4.50;1.50;;;;;;;19.52;54.65;99190.63;109927;1280;22004;-78
2023/10/26 01:08:01;;;;;;;5.70;1.70;;;;;;;19.52;54.47;99198.48;109946;1280;21951;-59
2023/10/26 01:10:27;;;;;;;3.30;1.40;;;;;;;19.49;54.36;99194.79;109954;1283;22003;-59
2023/10/26 01:12:53;;;;;;;4.70;1.60;;;;;;;19.44;54.30;99197.56;109858;1277;22010;-59
2023/10/26 01:15:18;;;;;;;5.70;1.70;;;;;;;19.40;54.32;99206.77;109957;1273;21939;-60
2023/10/26 01:17:44;;;;;;;3.80;1.70;;;;;;;19.36;54.36;99210.63;109921;1279;21964;-78
2023/10/26 01:20:16;;;;;;;5.30;1.50;;;;;;;19.34;54.57;99213.04;109966;1277;21961;-59
2023/10/26 01:22:41;;;;;;;8.00;1.80;;;;;;;19.35;54.67;99215.81;109904;1286;21999;-77
2023/10/26 01:25:07;;;;;;;4.00;1.60;;;;;;;19.35;54.67;99209.91;109964;1278;21929;-78
2023/10/26 01:27:33;;;;;;;4.30;1.80;;;;;;;19.34;54.61;99200.39;109948;1273;21950;-80
2023/10/26 01:29:59;;;;;;;5.20;1.80;;;;;;;19.33;54.65;99199.21;109967;1276;22008;-81
2023/10/26 01:32:27;;;;;;;5.40;1.60;;;;;;;19.32;54.76;99201.95;109965;1286;21856;-61
2023/10/26 01:34:53;;;;;;;5.30;2.10;;;;;;;19.33;54.89;99208.84;109921;1280;21916;-78
2023/10/26 01:37:18;;;;;;;5.90;2.20;;;;;;;19.36;54.98;99213.61;109975;1278;21908;-80
2023/10/26 01:39:44;;;;;;;5.60;2.20;;;;;;;19.39;54.93;99213.77;109951;1284;21941;-58
2023/10/26 01:42:11;;;;;;;4.50;1.80;;;;;;;19.41;54.90;99214.18;109971;1279;21883;-59
2023/10/26 01:44:38;;;;;;;5.70;2.00;;;;;;;19.41;54.86;99213.98;109961;1286;21958;-79
2023/10/26 01:47:05;;;;;;;4.10;2.00;;;;;;;19.41;54.89;99218.64;109954;1278;21931;-77
2023/10/26 01:49:31;;;;;;;4.80;2.20;;;;;;;19.40;54.83;99223.48;109944;1283;22393;-80
2023/10/26 01:51:56;;;;;;;3.80;1.90;;;;;;;19.37;54.70;99221.56;109957;1286;21889;-59
2023/10/26 01:54:22;;;;;;;4.10;1.80;;;;;;;19.30;54.73;99219.48;109931;1286;21999;-80
2023/10/26 01:56:47;;;;;;;6.00;1.90;;;;;;;19.26;54.88;99216.88;109978;1279;21931;-59
2023/10/26 01:59:13;;;;;;;5.40;2.30;;;;;;;19.24;54.93;99215.09;109955;1280;21956;-59
2023/10/26 02:01:39;;;;;;;4.10;2.00;;;;;;;19.25;54.98;99222.89;109969;1279;21870;-79
2023/10/26 02:04:04;;;;;;;4.60;2.00;;;;;;;19.25;55.04;99228.03;109964;1283;22407;-80
2023/10/26 02:06:30;;;;;;;5.30;2.10;;;;;;;19.24;55.00;99234.13;109950;1286;22053;-59
2023/10/26 02:08:56;;;;;;;5.20;2.40;;;;;;;19.20;54.96;99239.20;109968;1276;21862;-59
2023/10/26 02:11:21;;;;;;;5.10;1.90;;;;;;;19.18;55.09;99242.17;109953;1276;21844;-80
2023/10/26 02:13:47;;;;;;;8.80;2.40;;;;;;;19.19;55.24;99239.11;109957;1278;21930;-59
2023/10/26 02:16:13;;;;;;;4.90;1.70;;;;;;;19.21;55.33;99238.81;109946;1282;21926;-79
2023/10/26 02:18:42;;;;;;;4.30;1.90;;;;;;;19.22;55.20;99234.29;109950;1273;21877;-60
2023/10/26 02:21:08;;;;;;;4.00;2.30;;;;;;;19.21;55.08;99235.98;109953;1283;22013;-59
2023/10/26 02:23:34;;;;;;;5.10;2.10;;;;;;;19.21;55.13;99241.15;109963;1283;21854;-77
2023/10/26 02:26:01;;;;;;;7.40;2.20;;;;;;;19.15;55.05;99253.23;109886;1282;22305;-59
2023/10/26 02:28:27;;;;;;;3.40;2.20;;;;;;;19.09;55.15;99252.90;109956;1286;21872;-76
2023/10/26 02:30:52;;;;;;;4.80;2.10;;;;;;;19.07;55.35;99250.92;109944;1274;22039;-59
2023/10/26 02:33:18;;;;;;;3.30;1.90;;;;;;;19.06;55.48;99247.75;109938;1274;21940;-59
2023/10/26 02:35:44;;;;;;;4.60;2.40;;;;;;;19.07;55.55;99246.33;109928;1281;21942;-59
2023/10/26 02:38:10;;;;;;;5.20;1.70;;;;;;;19.07;55.56;99254.26;109944;1279;21962;-59
2023/10/26 02:40:36;;;;;;;3.50;2.10;;;;;;;19.10;55.64;99262.80;109924;1283;22452;-78
2023/10/26 02:43:03;;;;;;;4.00;2.00;;;;;;;19.12;55.56;99274.77;109950;1278;21957;-59
2023/10/26 02:45:30;;;;;;;4.70;2.10;;;;;;;19.12;55.50;99285.60;109918;1280;21977;-78
2023/10/26 02:47:58;;;;;;;4.70;2.00;;;;;;;19.12;55.46;99292.75;109917;1279;22003;-78
2023/10/26 02:50:23;;;;;;;5.90;2.20;;;;;;;19.09;55.47;99291.50;109924;1284;22015;-59
2023/10/26 02:52:49;;;;;;;5.30;2.30;;;;;;;19.06;55.48;99292.57;109922;1282;21960;-59
2023/10/26 02:55:15;;;;;;;4.40;2.40;;;;;;;19.03;55.39;99302.02;109914;1273;21933;-77
2023/10/26 02:57:40;;;;;;;4.10;2.20;;;;;;;19.01;55.46;99302.14;109873;1286;22389;-76
2023/10/26 03:00:07;;;;;;;4.40;2.10;;;;;;;19.00;55.54;99299.00;109925;1286;22352;-58
2023/10/26 03:02:33;;;;;;;5.40;2.00;;;;;;;19.00;55.55;99301.33;109950;1279;21856;-59
2023/10/26 03:04:58;;;;;;;4.50;2.00;;;;;;;18.99;55.55;99302.60;109920;1280;21997;-59
2023/10/26 03:07:24;;;;;;;4.10;1.90;;;;;;;19.00;55.53;99311.10;109925;1286;21946;-59
2023/10/26 03:09:50;;;;;;;7.80;2.40;;;;;;;18.98;55.44;99305.17;109923;1286;21910;-78
2023/10/26 03:12:18;;;;;;;5.30;2.30;;;;;;;18.96;55.44;99297.79;109922;1274;22516;-60
2023/10/26 03:14:43;;;;;;;5.90;2.40;;;;;;;18.95;55.44;99298.75;109932;1283;21970;-78
2023/10/26 03:17:10;;;;;;;5.20;2.20;;;;;;;18.94;55.57;99300.09;109931;1279;22270;-59
2023/10/26 03:19:36;;;;;;;7.90;2.10;;;;;;;18.95;55.77;99301.65;109908;1276;21974;-60
2023/10/26 03:22:01;;;;;;;6.00;2.50;;;;;;;18.97;55.94;99303.86;109934;1285;21936;-76
2023/10/26 03:24:27;;;;;;;6.50;2.50;;;;;;;19.00;55.98;99309.30;109920;1279;21985;-60
2023/10/26 03:26:52;;;;;;;5.60;2.00;;;;;;;19.04;56.03;99310.84;109929;1285;21836;-59
2023/10/26 03:29:18;;;;;;;10.50;2.70;;;;;;;19.05;56.04;99309.88;109908;1280;21931;-59
2023/10/26 03:31:44;;;;;;;6.70;2.60;;;;;;;19.06;56.13;99307.38;109926;1275;22007;-78
2023/10/26 03:34:09;;;;;;;5.80;2.20;;;;;;;19.07;56.28;99309.74;109934;1276;21956;-59
2023/10/26 03:36:35;;;;;;;6.00;2.00;;;;;;;19.07;56.22;99307.78;109914;1283;21857;-75
2023/10/26 03:39:00;;;;;;;9.10;2.20;;;;;;;19.09;56.27;99312.80;109899;1283;21872;-58
2023/10/26 03:41:26;;;;;;;11.00;2.60;;;;;;;19.12;56.33;99317.07;109935;1276;21931;-76
2023/10/26 03:43:52;;;;;;;8.10;2.50;;;;;;;19.14;56.43;99319.73;109858;1282;22110;-59
2023/10/26 03:46:17;;;;;;;10.10;2.20;;;;;;;19.15;56.45;99317.02;109898;1286;22001;-59
2023/10/26 03:48:43;;;;;;;9.30;2.30;;;;;;;19.15;56.50;99311.69;109859;1275;21982;-78
2023/10/26 03:51:09;;;;;;;11.20;2.10;;;;;;;19.16;56.63;99306.29;108361;1278;1002282;-78
2023/10/26 03:53:35;;;;;;;4.50;2.20;;;;;;;19.17;56.70;99306.98;109903;1286;22213;-58
2023/10/26 03:56:01;;;;;;;7.00;1.80;;;;;;;19.17;56.82;99303.60;109923;1283;21872;-59
2023/10/26 03:58:27;;;;;;;5.10;2.30;;;;;;;19.18;56.84;99299.42;109941;1282;21962;-78
2023/10/26 04:00:52;;;;;;;7.00;2.80;;;;;;;19.19;56.94;99296.00;109953;1286;22008;-78
2023/10/26 04:03:18;;;;;;;7.50;2.70;;;;;;;19.21;57.00;99297.66;109949;1279;21968;-59
2023/10/26 04:05:43;;;;;;;10.70;2.90;;;;;;;19.24;57.10;99303.88;109946;1273;21999;-79
2023/10/26 04:08:09;;;;;;;10.30;2.00;;;;;;;19.27;57.20;99305.27;109958;1279;22428;-79
2023/10/26 04:10:36;;;;;;;6.70;2.00;;;;;;;19.27;57.19;99306.11;109960;1286;21941;-79
2023/10/26 04:13:01;;;;;;;4.60;1.80;;;;;;;19.28;57.11;99311.96;109960;1283;21912;-78
2023/10/26 04:15:27;;;;;;;5.40;2.30;;;;;;;19.30;57.14;99317.36;109966;1276;21997;-58
2023/10/26 04:17:53;;;;;;;5.60;2.20;;;;;;;19.30;57.08;99318.95;109937;1284;21970;-59
2023/10/26 04:20:20;;;;;;;6.20;1.70;;;;;;;19.29;57.02;99322.04;109951;1283;21997;-58
2023/10/26 04:22:46;;;;;;;7.60;2.10;;;;;;;19.28;57.00;99324.73;109949;1286;21829;-79
2023/10/26 04:25:12;;;;;;;26.50;2.80;;;;;;;19.27;56.91;99319.64;109940;1282;21983;-58
2023/10/26 04:27:38;;;;;;;48.80;6.60;;;;;;;19.26;57.02;99317.38;109944;1286;21910;-59
2023/10/26 04:30:05;;;;;;;155.50;13.10;;;;;;;19.27;57.03;99305.59;109968;1279;21952;-82
2023/10/26 04:32:31;;;;;;;34.70;4.60;;;;;;;19.29;57.10;99302.23;109976;1286;21895;-58
2023/10/26 04:34:56;;;;;;;24.70;4.20;;;;;;;19.30;57.00;99303.95;109967;1286;21937;-58
2023/10/26 04:37:22;;;;;;;12.90;2.70;;;;;;;19.32;57.04;99305.30;109966;1286;21865;-58
2023/10/26 04:39:47;;;;;;;24.10;3.30;;;;;;;19.34;57.12;99306.21;109959;1286;21975;-58
2023/10/26 04:42:13;;;;;;;17.10;3.20;;;;;;;19.37;57.35;99301.93;109952;1279;21858;-59
2023/10/26 04:44:40;;;;;;;23.80;3.50;;;;;;;19.41;57.50;99300.41;109789;1286;22407;-59
2023/10/26 04:47:05;;;;;;;11.80;2.30;;;;;;;19.45;57.58;99292.71;109938;1286;21928;-59
2023/10/26 04:49:33;;;;;;;6.50;2.40;;;;;;;19.48;57.37;99297.32;109965;1286;21985;-81
2023/10/26 04:51:59;;;;;;;7.10;2.10;;;;;;;19.48;57.03;99299.27;109992;1286;22010;-82
2023/10/26 04:54:27;;;;;;;5.10;2.10;;;;;;;19.45;56.81;99303.52;109968;1279;21871;-59
2023/10/26 04:56:53;;;;;;;9.90;2.00;;;;;;;19.43;56.78;99305.80;109979;1286;21950;-61
2023/10/26 04:59:19;;;;;;;6.80;2.40;;;;;;;19.42;56.81;99308.89;109958;1286;21928;-60
2023/10/26 05:01:45;;;;;;;9.90;2.40;;;;;;;19.39;56.71;99312.10;109970;1273;21977;-82
2023/10/26 05:04:10;;;;;;;26.20;3.80;;;;;;;19.35;56.61;99310.06;109969;1284;21990;-60
2023/10/26 05:06:36;;;;;;;19.50;3.70;;;;;;;19.29;56.57;99312.11;109955;1279;22350;-60
2023/10/26 05:09:03;;;;;;;11.40;3.00;;;;;;;19.24;56.70;99316.65;109954;1277;21931;-73
2023/10/26 05:11:29;;;;;;;22.90;3.00;;;;;;;19.23;56.87;99321.36;109948;1286;21934;-60
2023/10/26 05:13:55;;;;;;;32.40;3.60;;;;;;;19.25;57.01;99323.90;109956;1279;22011;-78
2023/10/26 05:16:20;;;;;;;13.60;2.50;;;;;;;19.29;57.16;99320.20;109962;1280;21945;-79
2023/10/26 05:18:46;;;;;;;8.10;2.00;;;;;;;19.35;57.22;99323.59;109980;1279;22062;-80
2023/10/26 05:21:11;;;;;;;10.20;2.30;;;;;;;19.35;57.03;99329.13;109978;1286;21913;-60
2023/10/26 05:23:38;;;;;;;7.10;2.00;;;;;;;19.27;56.86;99333.52;109955;1286;21928;-77
2023/10/26 05:26:03;;;;;;;12.60;3.20;;;;;;;19.21;56.87;99337.65;109962;1279;22018;-60
2023/10/26 05:28:29;;;;;;;8.50;2.40;;;;;;;19.17;57.02;99340.61;109985;1273;21931;-60
2023/10/26 05:30:55;;;;;;;6.40;2.20;;;;;;;19.16;57.09;99353.40;109941;1280;22074;-60
2023/10/26 05:33:20;;;;;;;8.20;2.00;;;;;;;19.19;57.12;99353.24;109903;1283;21850;-82
2023/10/26 05:35:46;;;;;;;12.90;2.80;;;;;;;19.20;57.13;99351.77;109902;1286;22473;-59
2023/10/26 05:38:11;;;;;;;11.20;2.80;;;;;;;19.18;57.13;99357.02;109930;1286;22077;-59
2023/10/26 05:40:37;;;;;;;8.30;3.00;;;;;;;19.15;57.27;99364.49;109881;1279;21966;-60
2023/10/26 05:43:03;;;;;;;8.60;2.70;;;;;;;19.15;57.31;99370.58;109944;1276;21979;-62
2023/10/26 05:45:29;;;;;;;9.80;2.50;;;;;;;19.14;57.29;99371.15;109923;1286;22037;-60
2023/10/26 05:47:55;;;;;;;6.20;2.40;;;;;;;19.14;57.33;99366.88;109912;1279;21990;-59
2023/10/26 05:50:21;;;;;;;10.40;2.90;;;;;;;19.15;57.42;99367.17;109935;1276;22008;-60
2023/10/26 05:52:47;;;;;;;9.70;2.60;;;;;;;19.18;57.55;99363.61;109925;1286;22122;-72
2023/10/26 05:55:13;;;;;;;6.20;2.20;;;;;;;19.25;57.77;99363.02;109937;1284;21933;-58
2023/10/26 05:57:39;;;;;;;5.10;1.90;;;;;;;19.34;57.96;99362.94;109922;1279;22022;-59
2023/10/26 06:00:06;;;;;;;7.40;2.40;;;;;;;19.46;58.14;99367.67;109916;1274;21947;-80
2023/10/26 06:02:33;;;;;;;6.20;2.30;;;;;;;19.61;58.39;99371.89;109906;1287;21908;-58
2023/10/26 06:04:58;;;;;;;5.00;2.20;;;;;;;19.78;58.56;99377.73;109897;1276;21940;-59
2023/10/26 06:07:24;;;;;;;8.80;2.40;;;;;;;19.93;58.53;99378.33;109903;1279;22326;-60
2023/10/26 06:09:50;;;;;;;6.20;1.90;;;;;;;20.08;58.39;99375.01;109915;1287;21925;-58
2023/10/26 06:12:16;;;;;;;5.50;2.30;;;;;;;20.23;58.28;99372.09;109909;1287;21909;-61
2023/10/26 06:14:43;;;;;;;6.20;2.30;;;;;;;20.38;58.25;99371.60;109926;1287;22389;-58
2023/10/26 06:17:10;;;;;;;9.20;2.50;;;;;;;20.53;58.19;99370.73;109924;1286;21927;-59
2023/10/26 06:19:35;;;;;;;21.40;3.10;;;;;;;20.66;58.01;99368.20;109920;1275;21977;-77
2023/10/26 06:22:01;;;;;;;6.00;2.20;;;;;;;20.79;57.94;99367.30;109915;1281;21903;-58
2023/10/26 06:24:27;;;;;;;6.80;2.00;;;;;;;20.91;57.75;99369.30;109899;1283;21878;-71
2023/10/26 06:26:52;;;;;;;6.40;2.20;;;;;;;21.02;57.70;99370.65;109913;1281;21929;-59
2023/10/26 06:29:18;;;;;;;5.70;2.10;;;;;;;21.14;57.67;99369.63;109901;1287;21972;-59
2023/10/26 06:31:44;;;;;;;7.40;2.00;;;;;;;21.28;57.91;99365.59;109912;1287;22380;-77
2023/10/26 06:34:09;;;;;;;6.90;2.40;;;;;;;21.46;58.21;99367.48;109889;1276;21883;-78
2023/10/26 06:36:35;;;;;;;7.20;2.40;;;;;;;21.62;58.09;99368.82;109915;1279;22024;-80
2023/10/26 06:39:02;;;;;;;5.00;2.30;;;;;;;21.75;57.94;99370.91;109901;1287;21937;-58
2023/10/26 06:41:28;;;;;;;19.90;3.20;;;;;;;21.88;58.01;99374.09;109910;1276;21931;-78
2023/10/26 06:43:55;;;;;;;6.30;1.70;;;;;;;22.00;57.83;99372.77;109901;1287;21927;-58
2023/10/26 06:46:21;;;;;;;5.10;2.40;;;;;;;22.14;57.83;99366.40;109906;1287;22015;-59
2023/10/26 06:48:48;;;;;;;5.90;1.90;;;;;;;22.27;57.79;99358.29;109903;1275;21981;-78
2023/10/26 06:51:13;;;;;;;6.40;2.70;;;;;;;22.45;58.07;99358.69;109896;1279;21930;-59
2023/10/26 06:53:39;;;;;;;4.30;2.30;;;;;;;22.63;58.09;99354.78;109891;1287;22013;-74
2023/10/26 06:56:11;;;;;;;5.90;2.60;;;;;;;22.81;58.13;99353.32;109900;1282;21914;-77
2023/10/26 06:58:37;;;;;;;6.10;2.70;;;;;;;23.00;57.63;99359.75;109904;1287;21888;-76
2023/10/26 07:01:09;;;;;;;9.60;2.40;;;;;;;23.13;57.50;99360.48;109889;1287;21857;-70
2023/10/26 07:03:35;;;;;;;5.30;2.40;;;;;;;23.26;57.37;99360.30;109882;1282;22005;-59
2023/10/26 07:06:03;;;;;;;4.30;2.00;;;;;;;23.36;57.35;99359.16;109887;1287;21955;-59
2023/10/26 07:08:36;;;;;;;5.40;2.10;;;;;;;23.49;57.30;99352.59;109915;1274;21912;-77
2023/10/26 07:11:06;;;;;;;4.60;2.20;;;;;;;23.63;57.23;99352.52;109912;1279;21943;-59
2023/10/26 07:13:31;;;;;;;4.70;2.30;;;;;;;23.78;57.08;99354.45;109966;1286;21993;-76
2023/10/26 07:15:59;;;;;;;5.70;2.20;;;;;;;23.92;56.76;99363.15;109965;1286;21922;-59
2023/10/26 07:18:25;;;;;;;5.90;2.10;;;;;;;24.05;56.58;99366.21;109960;1286;21930;-58
2023/10/26 07:20:50;;;;;;;5.40;2.40;;;;;;;24.21;56.75;99363.27;109957;1279;21921;-70
2023/10/26 07:23:17;;;;;;;4.00;2.00;;;;;;;24.38;56.36;99355.73;109948;1280;22297;-59
2023/10/26 07:25:43;;;;;;;6.00;2.20;;;;;;;24.50;55.83;99353.05;109949;1286;22019;-76
2023/10/26 07:28:09;;;;;;;4.00;2.00;;;;;;;24.65;56.06;99353.55;109973;1273;21939;-59
2023/10/26 07:30:43;;;;;;;4.50;2.10;;;;;;;24.82;55.77;99361.25;109948;1279;22010;-59
2023/10/26 07:33:09;;;;;;;3.70;2.10;;;;;;;24.94;55.31;99365.77;109959;1281;21961;-59
2023/10/26 07:35:43;;;;;;;3.90;2.00;;;;;;;25.07;55.25;99363.73;109969;1286;22010;-59
2023/10/26 07:38:09;;;;;;;7.70;2.20;;;;;;;25.21;54.83;99361.38;109916;1286;21940;-59
2023/10/26 07:40:36;;;;;;;5.30;2.20;;;;;;;25.29;54.59;99357.50;109963;1286;21917;-59
2023/10/26 07:43:02;;;;;;;6.70;2.20;;;;;;;25.37;54.46;99349.75;109958;1283;21961;-76
2023/10/26 07:45:28;;;;;;;5.90;1.90;;;;;;;25.48;54.52;99344.06;109896;1287;21931;-59
2023/10/26 07:47:55;;;;;;;4.10;1.80;;;;;;;25.64;54.54;99341.58;109899;1287;21957;-76
2023/10/26 07:50:20;;;;;;;7.20;2.30;;;;;;;25.75;54.04;99341.27;109929;1287;21942;-78
2023/10/26 07:52:47;;;;;;;7.60;3.10;;;;;;;25.84;53.89;99344.94;109902;1282;22414;-74
2023/10/26 07:55:13;;;;;;;6.40;2.60;;;;;;;26.00;54.14;99346.89;109911;1287;21935;-59
2023/10/26 07:57:38;;;;;;;4.50;2.20;;;;;;;26.25;54.30;99349.42;109907;1285;22018;-59
2023/10/26 08:00:06;;;;;;;6.00;2.50;;;;;;;26.43;53.51;99350.49;109910;1279;21942;-77
2023/10/26 08:02:34;;;;;;;;;;;;;;;26.56;52.54;99356.58;109920;1276;22000;-75
2023/10/26 08:05:00;;;;;;;5.90;2.20;;;;;;;26.65;52.41;99362.92;109895;1287;21961;-76
2023/10/26 08:07:26;;;;;;;5.60;2.30;;;;;;;26.71;52.08;99360.55;109911;1287;21918;-58
2023/10/26 08:09:52;;;;;;;4.10;2.10;;;;;;;26.73;51.19;99360.48;109898;1287;21929;-75
2023/10/26 08:12:18;;;;;;;8.80;1.60;;;;;;;26.75;51.70;99358.38;109922;1280;21956;-73
2023/10/26 08:14:44;;;;;;;4.80;1.80;;;;;;;26.84;51.57;99353.91;109910;1287;22356;-76
2023/10/26 08:17:11;;;;;;;3.60;1.90;;;;;;;26.91;51.30;99352.55;109913;1287;21954;-75
2023/10/26 08:19:38;;;;;;;4.30;1.80;;;;;;;26.99;51.31;99351.55;109919;1286;21883;-58
2023/10/26 08:22:04;;;;;;;5.50;1.50;;;;;;;27.13;51.36;99347.02;109909;1287;21897;-75
2023/10/26 08:24:31;;;;;;;3.50;1.70;;;;;;;27.33;50.83;99347.05;109889;1287;22478;-58
2023/10/26 08:26:57;;;;;;;5.20;1.70;;;;;;;27.51;50.38;99343.88;109917;1287;21924;-59
2023/10/26 08:29:24;;;;;;;4.70;1.70;;;;;;;27.59;50.07;99341.05;109915;1281;22005;-74
2023/10/26 08:31:50;;;;;;;3.30;1.30;;;;;;;27.63;49.75;99340.17;109890;1287;21963;-59
2023/10/26 08:34:15;;;;;;;16.60;3.90;;;;;;;27.75;49.90;99342.73;109908;1287;21920;-59
2023/10/26 08:36:41;;;;;;;3.70;1.50;;;;;;;27.96;49.47;99343.63;109885;1282;21931;-75
2023/10/26 08:39:07;;;;;;;6.00;1.60;;;;;;;28.07;48.98;99343.42;109911;1287;21938;-72
2023/10/26 08:41:35;;;;;;;3.10;1.50;;;;;;;28.13;48.73;99337.24;109895;1287;22003;-72
2023/10/26 08:44:02;;;;;;;4.30;1.30;;;;;;;28.25;48.77;99330.52;109920;1287;21921;-59
2023/10/26 08:46:28;;;;;;;2.20;1.10;;;;;;;28.44;48.20;99324.87;109873;1287;21933;-74
2023/10/26 08:48:54;;;;;;;3.50;1.50;;;;;;;28.62;47.95;99322.17;109844;1287;21942;-61
2023/10/26 08:51:20;;;;;;;5.70;1.70;;;;;;;28.71;47.35;99321.55;109897;1287;21942;-60
2023/10/26 08:53:46;;;;;;;4.50;1.80;;;;;;;28.76;47.01;99323.21;109893;1287;21931;-62
2023/10/26 08:56:15;;;;;;;4.30;1.50;;;;;;;28.83;46.65;99331.92;109920;1287;22415;-61
2023/10/26 08:58:42;;;;;;;2.20;1.20;;;;;;;28.87;46.58;99335.62;109921;1287;21935;-61
2023/10/26 09:01:08;;;;;;;5.70;1.50;;;;;;;28.99;46.43;99334.68;109897;1287;21959;-76
2023/10/26 09:03:37;;;;;;;5.00;1.40;;;;;;;29.11;46.36;99335.61;109899;1276;22008;-73
2023/10/26 09:06:03;;;;;;;5.20;1.20;;;;;;;29.24;46.16;99340.38;109902;1287;21939;-62
2023/10/26 09:08:30;;;;;;;4.50;1.50;;;;;;;29.43;46.05;99342.64;109942;1287;21944;-61
2023/10/26 09:10:56;;;;;;;3.60;1.10;;;;;;;29.50;43.99;99341.30;109898;1287;21925;-61
2023/10/26 09:13:25;;;;;;;4.50;1.00;;;;;;;29.50;44.12;99334.73;109894;1287;21956;-61
2023/10/26 09:15:52;;;;;;;2.30;0.80;;;;;;;29.48;44.37;99330.33;109900;1287;21941;-76
2023/10/26 09:18:18;;;;;;;2.50;1.30;;;;;;;29.49;44.05;99323.55;109893;1284;21933;-75
2023/10/26 09:20:59;;;;;;;4.50;1.60;;;;;;;29.52;43.93;99320.17;109887;1287;21936;-63
2023/10/26 09:23:26;;;;;;;3.20;2.00;;;;;;;29.67;44.18;99318.59;109878;1287;21901;-77
2023/10/26 09:25:58;;;;;;;4.30;1.90;;;;;;;29.79;43.75;99312.38;109895;1287;21886;-75
2023/10/26 09:28:23;;;;;;;3.90;1.50;;;;;;;29.81;42.83;99313.77;109914;1287;22260;-62
2023/10/26 09:30:49;;;;;;;4.80;1.70;;;;;;;29.85;43.14;99309.89;109900;1282;21925;-61
2023/10/26 09:33:23;;;;;;;4.60;1.50;;;;;;;29.96;42.96;99306.48;109901;1287;21940;-75
2023/10/26 09:35:48;;;;;;;3.40;1.00;;;;;;;30.04;42.07;99306.22;109901;1287;22236;-60
2023/10/26 09:38:15;;;;;;;12.80;1.30;;;;;;;29.99;41.85;99306.98;109911;1285;21951;-60
2023/10/26 09:40:40;;;;;;;2.90;1.10;;;;;;;29.93;41.65;99302.17;109912;1287;21921;-79
2023/10/26 09:43:06;;;;;;;3.20;0.90;;;;;;;29.88;41.06;99297.87;109817;1288;21935;-77
2023/10/26 09:45:32;;;;;;;2.20;1.00;;;;;;;29.90;41.40;99297.77;109867;1286;21974;-61
2023/10/26 09:47:59;;;;;;;22.80;2.70;;;;;;;30.04;41.39;99288.08;109888;1286;21954;-76
2023/10/26 09:50:25;;;;;;;70.90;6.20;;;;;;;30.22;41.43;99283.84;109909;1285;21937;-78
2023/10/26 09:52:50;;;;;;;5.60;1.50;;;;;;;30.36;41.04;99279.85;109868;1286;21998;-76
2023/10/26 09:55:16;;;;;;;7.10;1.80;;;;;;;30.50;40.95;99281.21;109931;1279;21963;-75
2023/10/26 09:57:50;;;;;;;4.60;1.30;;;;;;;30.67;40.42;99277.26;109882;1286;21969;-62
2023/10/26 10:00:17;;;;;;;5.10;1.60;;;;;;;30.78;39.98;99271.75;109895;1286;22329;-75
2023/10/26 10:02:43;;;;;;;3.40;1.10;;;;;;;30.86;39.62;99272.42;109935;1286;21962;-60
2023/10/26 10:05:35;;;;;;;3.70;1.20;;;;;;;30.82;39.03;99267.58;109808;1285;22025;-77
2023/10/26 10:08:01;;;;;;;4.30;1.70;;;;;;;30.73;38.50;99265.04;109862;1286;22438;-60
2023/10/26 10:10:27;;;;;;;1.80;0.90;;;;;;;30.63;38.26;99258.29;109907;1286;22000;-60
2023/10/26 10:12:53;;;;;;;7.00;1.50;;;;;;;30.55;38.58;99256.96;109912;1286;21985;-60
2023/10/26 10:15:32;;;;;;;2.60;1.20;;;;;;;30.51;38.49;99262.30;109942;1285;21955;-60
2023/10/26 10:17:58;;;;;;;2.10;0.70;;;;;;;30.38;38.25;99259.16;109894;1286;21961;-60
2023/10/26 10:20:23;;;;;;;3.40;0.60;;;;;;;30.25;38.23;99257.81;109908;1286;22006;-60
2023/10/26 10:22:52;;;;;;;2.10;0.80;;;;;;;30.12;37.88;99259.71;109881;1286;21994;-60
2023/10/26 10:25:18;;;;;;;2.40;0.90;;;;;;;29.99;38.05;99258.98;109863;1286;21940;-60
2023/10/26 10:27:49;;;;;;;1.40;0.70;;;;;;;29.87;38.10;99252.13;109900;1287;21862;-65
2023/10/26 10:30:18;;;;;;;1.20;0.60;;;;;;;29.80;37.98;99248.96;109894;1287;21960;-73
2023/10/26 10:32:44;;;;;;;1.70;0.30;;;;;;;29.85;37.97;99246.48;109887;1287;22001;-73
2023/10/26 10:35:10;;;;;;;2.90;0.70;;;;;;;29.85;37.80;99241.39;109917;1287;21951;-60
2023/10/26 10:37:36;;;;;;;1.80;0.60;;;;;;;29.89;37.77;99236.94;109910;1279;22018;-61
2023/10/26 10:40:17;;;;;;;1.40;0.50;;;;;;;30.01;37.69;99236.54;109918;1287;21939;-73
2023/10/26 10:42:47;;;;;;;1.20;0.60;;;;;;;30.13;37.31;99237.19;109906;1287;22038;-74
2023/10/26 10:45:13;;;;;;;2.40;0.60;;;;;;;30.27;37.43;99231.72;109810;1287;22283;-74
2023/10/26 10:47:43;;;;;;;1.50;0.40;;;;;;;30.39;37.08;99231.07;109914;1287;21899;-61
2023/10/26 10:50:22;;;;;;;7.80;0.60;;;;;;;30.46;36.57;99226.50;109895;1287;21992;-72
2023/10/26 10:52:53;;;;;;;0.90;0.50;;;;;;;30.57;36.80;99228.43;109903;1287;21994;-73
2023/10/26 10:55:20;;;;;;;1.40;0.70;;;;;;;30.67;36.49;99230.73;109922;1287;22360;-61
2023/10/26 10:57:53;;;;;;;2.60;0.40;;;;;;;30.72;36.51;99227.47;109907;1287;21908;-71
2023/10/26 11:00:19;;;;;;;1.20;0.50;;;;;;;30.74;36.59;99225.86;109897;1287;22472;-72
2023/10/26 11:02:49;;;;;;;5.70;0.70;;;;;;;30.80;36.80;99220.37;109927;1287;22438;-73
2023/10/26 11:05:16;;;;;;;2.60;0.60;;;;;;;30.80;35.82;99222.70;109891;1287;21952;-60
2023/10/26 11:07:42;;;;;;;2.00;0.70;;;;;;;30.64;35.76;99230.02;109910;1287;21912;-73
2023/10/26 11:10:08;;;;;;;2.80;0.70;;;;;;;30.43;35.71;99232.57;109902;1287;22204;-61
2023/10/26 11:12:34;;;;;;;4.50;0.80;;;;;;;30.24;36.02;99227.33;109927;1287;21914;-61
2023/10/26 11:15:00;;;;;;;2.20;0.60;;;;;;;30.10;36.59;99229.64;109888;1287;22041;-73
2023/10/26 11:17:27;;;;;;;3.00;0.70;;;;;;;30.00;36.83;99231.16;109846;1285;22404;-72
2023/10/26 11:19:53;;;;;;;3.90;0.80;;;;;;;29.86;36.53;99231.13;109846;1287;21937;-60
2023/10/26 11:22:20;;;;;;;1.40;0.70;;;;;;;29.68;36.34;99230.84;109898;1288;21933;-60